createdAt,value
2019-04-27T00:00:15.913Z,99.99
2019-04-27T00:01:16.135Z,99.99
2019-04-27T00:02:18.205Z,99.99
2019-04-27T00:03:16.617Z,99.99
2019-04-27T00:04:19.217Z,99.99
2019-04-27T00:05:16.788Z,99.99
2019-04-27T00:06:17.037Z,99.99
2019-04-27T00:07:17.119Z,99.99
2019-04-27T00:08:17.345Z,99.99
2019-04-27T00:09:17.430Z,99.99
2019-04-27T00:10:20.465Z,99.99
2019-04-27T00:11:17.815Z,99.99
2019-04-27T00:12:22.850Z,99.99
2019-04-27T00:13:18.215Z,99.99
2019-04-27T00:14:18.415Z,99.99
2019-04-27T00:15:18.627Z,99.99
2019-04-27T00:16:18.854Z,99.99
2019-04-27T00:17:21.109Z,99.99
2019-04-27T00:18:19.138Z,99.99
2019-04-27T00:19:19.363Z,99.99
2019-04-27T00:20:21.659Z,99.99
2019-04-27T00:21:19.746Z,99.99
2019-04-27T00:22:19.941Z,99.99
2019-04-27T00:23:20.141Z,99.99
2019-04-27T00:24:20.359Z,99.99
2019-04-27T00:25:20.559Z,99.99
2019-04-27T00:26:20.757Z,99.99
2019-04-27T00:27:20.905Z,99.99
2019-04-27T00:28:20.976Z,99.99
2019-04-27T00:29:21.159Z,99.99
2019-04-27T00:30:21.360Z,99.99
2019-04-27T00:31:23.306Z,99.99
2019-04-27T00:32:23.128Z,99.99
2019-04-27T00:33:23.436Z,99.99
2019-04-27T00:34:23.574Z,99.99
2019-04-27T00:35:23.472Z,99.99
2019-04-27T00:36:23.281Z,99.99
2019-04-27T00:37:23.741Z,99.99
2019-04-27T00:38:23.335Z,99.99
2019-04-27T00:39:23.152Z,99.99
2019-04-27T00:40:23.626Z,99.99
2019-04-27T00:41:24.294Z,99.99
2019-04-27T00:42:23.671Z,99.99
2019-04-27T00:43:23.871Z,99.99
2019-04-27T00:44:24.128Z,99.99
2019-04-27T00:45:24.212Z,99.99
2019-04-27T00:46:24.330Z,99.99
2019-04-27T00:47:24.404Z,99.99
2019-04-27T00:48:24.590Z,99.99
2019-04-27T00:49:24.771Z,99.99
2019-04-27T00:50:25.007Z,99.99
2019-04-27T00:51:25.086Z,99.99
2019-04-27T00:52:25.283Z,99.99
2019-04-27T00:53:25.472Z,99.99
2019-04-27T00:54:25.650Z,99.99
2019-04-27T00:55:25.909Z,99.99
2019-04-27T00:56:26.363Z,99.99
2019-04-27T00:57:28.129Z,99.99
2019-04-27T00:58:26.381Z,99.99
2019-04-27T00:59:26.595Z,99.99
2019-04-27T01:00:26.797Z,99.99
2019-04-27T01:01:27.015Z,99.99
2019-04-27T01:02:27.202Z,99.99
2019-04-27T01:03:27.388Z,99.99
2019-04-27T01:04:27.594Z,99.99
2019-04-27T01:05:27.793Z,99.99
2019-04-27T01:06:27.903Z,99.99
2019-04-27T01:07:28.132Z,99.99
2019-04-27T01:08:28.194Z,99.99
2019-04-27T01:09:28.442Z,99.99
2019-04-27T01:10:28.507Z,99.99
2019-04-27T01:11:28.707Z,99.99
2019-04-27T01:12:28.908Z,99.99
2019-04-27T01:13:29.482Z,99.99
2019-04-27T01:14:29.294Z,99.99
2019-04-27T01:15:29.493Z,99.99
2019-04-27T01:16:29.683Z,99.99
2019-04-27T01:17:29.882Z,99.99
2019-04-27T01:18:30.120Z,99.99
2019-04-27T01:19:30.201Z,99.99
2019-04-27T01:20:30.391Z,99.99
2019-04-27T01:21:30.590Z,99.99
2019-04-27T01:22:30.769Z,99.99
2019-04-27T01:23:31.028Z,99.99
2019-04-27T01:24:31.107Z,99.99
2019-04-27T01:25:31.288Z,99.99
2019-04-27T01:26:31.481Z,99.99
2019-04-27T01:27:31.689Z,99.99
2019-04-27T01:28:31.890Z,99.99
2019-04-27T01:29:32.114Z,99.99
2019-04-27T01:30:32.201Z,99.99
2019-04-27T01:31:32.401Z,99.99
2019-04-27T01:32:33.960Z,99.99
2019-04-27T01:33:32.771Z,99.99
2019-04-27T01:34:32.959Z,99.99
2019-04-27T01:35:33.203Z,99.99
2019-04-27T01:36:33.264Z,99.99
2019-04-27T01:37:33.451Z,99.99
2019-04-27T01:38:33.665Z,99.99
2019-04-27T01:39:33.968Z,99.99
2019-04-27T01:40:34.028Z,99.99
2019-04-27T01:41:34.252Z,99.99
2019-04-27T01:42:34.327Z,99.99
2019-04-27T01:43:34.527Z,99.99
2019-04-27T01:44:34.708Z,99.99
2019-04-27T01:45:34.935Z,99.99
2019-04-27T01:46:35.002Z,99.99
2019-04-27T01:47:35.241Z,99.99
2019-04-27T01:48:35.319Z,99.99
2019-04-27T01:49:35.529Z,99.99
2019-04-27T01:50:35.708Z,99.99
2019-04-27T01:51:35.818Z,99.99
2019-04-27T01:52:36.008Z,99.99
2019-04-27T01:53:36.195Z,99.99
2019-04-27T01:54:36.384Z,99.99
2019-04-27T01:55:36.561Z,99.99
2019-04-27T01:56:36.757Z,99.99
2019-04-27T01:57:38.597Z,99.99
2019-04-27T01:58:38.815Z,99.99
2019-04-27T01:59:38.687Z,99.99
2019-04-27T02:00:37.535Z,99.99
2019-04-27T02:01:38.983Z,99.99
2019-04-27T02:02:39.284Z,99.99
2019-04-27T02:03:38.673Z,99.99
2019-04-27T02:04:39.546Z,99.99
2019-04-27T02:05:39.121Z,99.99
2019-04-27T02:06:38.631Z,99.99
2019-04-27T02:07:39.030Z,99.99
2019-04-27T02:08:40.307Z,99.99
2019-04-27T02:09:39.013Z,99.99
2019-04-27T02:10:39.671Z,99.99
2019-04-27T02:11:39.409Z,99.99
2019-04-27T02:12:39.771Z,99.99
2019-04-27T02:13:39.777Z,99.99
2019-04-27T02:14:39.847Z,99.99
2019-04-27T02:15:40.056Z,99.99
2019-04-27T02:16:40.184Z,99.99
2019-04-27T02:17:40.379Z,99.99
2019-04-27T02:18:40.594Z,99.99
2019-04-27T02:19:40.783Z,99.99
2019-04-27T02:20:40.985Z,99.99
2019-04-27T02:21:41.176Z,99.99
2019-04-27T02:22:41.369Z,99.99
2019-04-27T02:23:41.599Z,99.99
2019-04-27T02:24:41.788Z,99.99
2019-04-27T02:25:42.024Z,99.99
2019-04-27T02:26:42.259Z,99.99
2019-04-27T02:27:42.329Z,99.99
2019-04-27T02:28:42.515Z,99.99
2019-04-27T02:29:42.713Z,99.99
2019-04-27T02:30:42.899Z,99.99
2019-04-27T02:31:43.145Z,99.99
2019-04-27T02:32:43.210Z,99.99
2019-04-27T02:33:43.411Z,99.99
2019-04-27T02:34:43.579Z,99.99
2019-04-27T02:35:43.633Z,99.99
2019-04-27T02:36:43.831Z,99.99
2019-04-27T02:37:44.032Z,99.99
2019-04-27T02:38:44.221Z,99.99
2019-04-27T02:39:44.451Z,99.99
2019-04-27T02:40:44.634Z,99.99
2019-04-27T02:41:44.845Z,99.99
2019-04-27T02:42:45.091Z,99.99
2019-04-27T02:43:45.168Z,99.99
2019-04-27T02:44:45.348Z,99.99
2019-04-27T02:45:45.550Z,99.99
2019-04-27T02:46:45.748Z,99.99
2019-04-27T02:47:45.963Z,99.99
2019-04-27T02:48:58.791Z,99.99
2019-04-27T02:49:46.344Z,99.99
2019-04-27T02:50:46.557Z,99.99
2019-04-27T02:51:49.398Z,99.99
2019-04-27T02:52:46.995Z,99.99
2019-04-27T02:53:49.288Z,99.99
2019-04-27T02:54:47.264Z,99.99
2019-04-27T02:55:49.729Z,99.99
2019-04-27T02:56:49.990Z,99.99
2019-04-27T02:57:49.984Z,99.99
2019-04-27T02:58:49.594Z,99.99
2019-04-27T02:59:50.239Z,99.99
2019-04-27T03:00:50.180Z,99.99
2019-04-27T03:01:50.314Z,99.99
2019-04-27T03:02:50.978Z,99.99
2019-04-27T03:03:50.292Z,99.99
2019-04-27T03:04:49.835Z,99.99
2019-04-27T03:05:50.307Z,99.99
2019-04-27T03:06:50.117Z,99.99
2019-04-27T03:07:50.321Z,99.99
2019-04-27T03:08:53.915Z,99.99
2019-04-27T03:09:51.052Z,99.99
2019-04-27T03:10:50.534Z,99.99
2019-04-27T03:11:50.474Z,99.99
2019-04-27T03:12:50.672Z,99.99
2019-04-27T03:13:51.931Z,99.99
2019-04-27T03:14:51.079Z,99.99
2019-04-27T03:15:51.275Z,99.99
2019-04-27T03:16:51.493Z,99.99
2019-04-27T03:17:51.698Z,99.99
2019-04-27T03:18:51.882Z,99.99
2019-04-27T03:19:52.369Z,99.99
2019-04-27T03:20:52.305Z,99.99
2019-04-27T03:21:52.520Z,99.99
2019-04-27T03:22:52.756Z,99.99
2019-04-27T03:23:52.876Z,99.99
2019-04-27T03:24:52.986Z,99.99
2019-04-27T03:25:53.081Z,99.99
2019-04-27T03:26:53.278Z,99.99
2019-04-27T03:27:53.466Z,99.99
2019-04-27T03:28:53.668Z,99.99
2019-04-27T03:29:53.873Z,99.99
2019-04-27T03:30:54.051Z,99.99
2019-04-27T03:31:54.685Z,99.99
2019-04-27T03:32:56.828Z,99.99
2019-04-27T03:33:58.922Z,99.99
2019-04-27T03:34:54.905Z,99.99
2019-04-27T03:35:55.034Z,99.99
2019-04-27T03:36:55.231Z,99.99
2019-04-27T03:37:55.448Z,99.99
2019-04-27T03:38:55.527Z,99.99
2019-04-27T03:39:55.725Z,99.99
2019-04-27T03:40:55.909Z,99.99
2019-04-27T03:41:56.108Z,99.99
2019-04-27T03:42:56.322Z,99.99
2019-04-27T03:43:56.442Z,99.99
2019-04-27T03:44:56.498Z,99.99
2019-04-27T03:45:56.735Z,99.99
2019-04-27T03:46:59.342Z,99.99
2019-04-27T03:47:57.086Z,99.99
2019-04-27T03:48:59.778Z,99.99
2019-04-27T03:49:59.873Z,99.99
2019-04-27T03:50:59.557Z,99.99
2019-04-27T03:52:02.672Z,99.99
2019-04-27T03:52:59.927Z,99.99
2019-04-27T03:54:00.461Z,99.99
2019-04-27T03:54:59.813Z,99.99
2019-04-27T03:55:59.956Z,99.99
2019-04-27T03:56:59.062Z,99.99
2019-04-27T03:58:00.155Z,99.99
2019-04-27T03:58:59.793Z,99.99
2019-04-27T03:59:59.819Z,99.99
2019-04-27T04:01:00.030Z,99.99
2019-04-27T04:02:02.480Z,99.99
2019-04-27T04:03:00.677Z,99.99
2019-04-27T04:04:00.093Z,99.99
2019-04-27T04:05:00.229Z,99.99
2019-04-27T04:06:00.507Z,99.99
2019-04-27T04:07:00.608Z,99.99
2019-04-27T04:08:00.792Z,99.99
2019-04-27T04:09:01.016Z,99.99
2019-04-27T04:10:01.228Z,99.99
2019-04-27T04:11:01.448Z,99.99
2019-04-27T04:12:02.298Z,99.99
2019-04-27T04:13:01.965Z,99.99
2019-04-27T04:14:01.984Z,99.99
2019-04-27T04:15:02.042Z,99.99
2019-04-27T04:16:02.272Z,99.99
2019-04-27T04:17:03.039Z,99.99
2019-04-27T04:18:02.460Z,99.99
2019-04-27T04:19:02.668Z,99.99
2019-04-27T04:20:02.874Z,99.99
2019-04-27T04:21:03.057Z,99.99
2019-04-27T04:22:03.285Z,99.99
2019-04-27T04:23:03.616Z,99.99
2019-04-27T04:24:03.642Z,99.99
2019-04-27T04:25:03.852Z,99.99
2019-04-27T04:26:04.044Z,99.99
2019-04-27T04:27:04.239Z,99.99
2019-04-27T04:28:04.451Z,99.99
2019-04-27T04:29:04.599Z,99.99
2019-04-27T04:30:04.660Z,99.99
2019-04-27T04:31:04.888Z,99.99
2019-04-27T04:32:04.989Z,99.99
2019-04-27T04:33:05.183Z,99.99
2019-04-27T04:34:05.384Z,99.99
2019-04-27T04:35:05.599Z,99.99
2019-04-27T04:36:05.825Z,99.99
2019-04-27T04:37:05.924Z,99.99
2019-04-27T04:38:06.121Z,99.99
2019-04-27T04:39:06.365Z,99.99
2019-04-27T04:40:06.458Z,99.99
2019-04-27T04:41:06.648Z,99.99
2019-04-27T04:42:09.796Z,99.99
2019-04-27T04:43:07.067Z,99.99
2019-04-27T04:44:12.148Z,99.99
2019-04-27T04:45:10.606Z,99.99
2019-04-27T04:46:12.810Z,99.99
2019-04-27T04:47:10.401Z,99.99
2019-04-27T04:48:11.423Z,99.99
2019-04-27T04:49:11.515Z,99.99
2019-04-27T04:50:14.938Z,99.99
2019-04-27T04:51:10.264Z,99.99
2019-04-27T04:52:12.212Z,99.99
2019-04-27T04:53:12.636Z,99.99
2019-04-27T04:54:09.528Z,99.99
2019-04-27T04:55:10.159Z,99.99
2019-04-27T04:56:10.637Z,99.99
2019-04-27T04:57:09.376Z,99.99
2019-04-27T04:58:09.506Z,99.99
2019-04-27T04:59:10.056Z,99.99
2019-04-27T05:00:10.043Z,99.99
2019-04-27T05:01:10.033Z,99.99
2019-04-27T05:02:10.784Z,99.99
2019-04-27T05:03:10.240Z,99.99
2019-04-27T05:04:10.324Z,99.99
2019-04-27T05:05:10.573Z,99.99
2019-04-27T05:06:10.667Z,99.99
2019-04-27T05:07:10.771Z,99.99
2019-04-27T05:08:10.988Z,99.99
2019-04-27T05:09:11.187Z,99.99
2019-04-27T05:10:11.401Z,99.99
2019-04-27T05:11:11.583Z,99.99
2019-04-27T05:12:11.804Z,99.99
2019-04-27T05:13:16.070Z,99.99
2019-04-27T05:14:14.428Z,99.99
2019-04-27T05:15:13.486Z,99.99
2019-04-27T05:16:13.645Z,99.99
2019-04-27T05:17:13.671Z,99.99
2019-04-27T05:18:14.159Z,99.99
2019-04-27T05:19:14.299Z,99.99
2019-04-27T05:20:22.471Z,99.99
2019-04-27T05:21:14.814Z,99.99
2019-04-27T05:22:16.290Z,99.99
2019-04-27T05:23:16.263Z,99.99
2019-04-27T05:24:15.257Z,99.99
2019-04-27T05:25:13.801Z,99.99
2019-04-27T05:26:13.910Z,99.99
2019-04-27T05:27:14.719Z,99.99
2019-04-27T05:28:14.175Z,99.99
2019-04-27T05:29:14.367Z,99.99
2019-04-27T05:30:14.586Z,99.99
2019-04-27T05:31:14.651Z,99.99
2019-04-27T05:32:14.852Z,99.99
2019-04-27T05:33:15.041Z,99.99
2019-04-27T05:34:15.227Z,99.99
2019-04-27T05:35:15.459Z,99.99
2019-04-27T05:36:15.521Z,99.99
2019-04-27T05:37:15.680Z,99.99
2019-04-27T05:38:15.865Z,99.99
2019-04-27T05:39:18.140Z,99.99
2019-04-27T05:40:16.167Z,99.99
2019-04-27T05:41:16.411Z,99.99
2019-04-27T05:42:17.143Z,99.99
2019-04-27T05:43:16.706Z,99.99
2019-04-27T05:44:18.372Z,99.99
2019-04-27T05:45:20.031Z,99.99
2019-04-27T05:46:19.020Z,99.99
2019-04-27T05:47:18.967Z,99.99
2019-04-27T05:48:27.280Z,99.99
2019-04-27T05:49:18.846Z,99.99
2019-04-27T05:50:21.835Z,99.99
2019-04-27T05:51:19.765Z,99.99
2019-04-27T05:52:18.530Z,99.99
2019-04-27T05:53:18.951Z,99.99
2019-04-27T05:54:19.210Z,99.99
2019-04-27T05:55:19.270Z,99.99
2019-04-27T05:56:19.276Z,99.99
2019-04-27T05:57:19.579Z,99.99
2019-04-27T05:58:19.618Z,99.99
2019-04-27T05:59:19.956Z,99.99
2019-04-27T06:00:19.677Z,99.99
2019-04-27T06:01:19.813Z,99.99
2019-04-27T06:02:20.370Z,99.99
2019-04-27T06:03:21.076Z,99.99
2019-04-27T06:04:20.414Z,99.99
2019-04-27T06:05:22.739Z,99.99
2019-04-27T06:06:20.916Z,99.99
2019-04-27T06:07:20.991Z,99.99
2019-04-27T06:08:21.226Z,99.99
2019-04-27T06:09:21.440Z,99.99
2019-04-27T06:10:21.622Z,99.99
2019-04-27T06:11:21.837Z,99.99
2019-04-27T06:12:22.031Z,99.99
2019-04-27T06:13:22.235Z,99.99
2019-04-27T06:14:22.450Z,99.99
2019-04-27T06:15:22.641Z,99.99
2019-04-27T06:16:22.862Z,99.99
2019-04-27T06:17:23.095Z,99.99
2019-04-27T06:18:23.207Z,99.99
2019-04-27T06:19:23.263Z,99.99
2019-04-27T06:20:23.458Z,99.99
2019-04-27T06:21:23.658Z,99.99
2019-04-27T06:22:23.839Z,99.99
2019-04-27T06:23:24.247Z,99.99
2019-04-27T06:24:24.077Z,99.99
2019-04-27T06:25:24.309Z,99.99
2019-04-27T06:26:24.500Z,99.99
2019-04-27T06:27:24.683Z,99.99
2019-04-27T06:28:24.872Z,99.99
2019-04-27T06:29:25.072Z,99.99
2019-04-27T06:30:25.159Z,99.99
2019-04-27T06:31:25.412Z,99.99
2019-04-27T06:32:25.500Z,99.99
2019-04-27T06:33:31.981Z,99.51
2019-04-27T06:34:25.936Z,99.08
2019-04-27T06:35:26.012Z,99.37
2019-04-27T06:36:26.199Z,98.03
2019-04-27T06:37:26.317Z,98.51
2019-04-27T06:38:26.498Z,98.03
2019-04-27T06:39:26.713Z,97.89
2019-04-27T06:40:26.810Z,97.71
2019-04-27T06:41:27.017Z,97.51
2019-04-27T06:42:27.205Z,97.47
2019-04-27T06:43:29.254Z,96.70
2019-04-27T06:44:29.234Z,95.65
2019-04-27T06:45:28.537Z,95.94
2019-04-27T06:46:28.800Z,95.56
2019-04-27T06:47:29.459Z,95.46
2019-04-27T06:48:29.638Z,94.31
2019-04-27T06:49:29.521Z,94.31
2019-04-27T06:50:29.572Z,93.65
2019-04-27T06:51:28.928Z,93.17
2019-04-27T06:52:29.369Z,92.83
2019-04-27T06:53:29.215Z,93.21
2019-04-27T06:54:29.305Z,91.97
2019-04-27T06:55:29.547Z,91.78
2019-04-27T06:56:29.746Z,92.07
2019-04-27T06:57:29.840Z,93.02
2019-04-27T06:58:30.050Z,93.21
2019-04-27T06:59:30.408Z,92.55
2019-04-27T07:00:30.308Z,93.02
2019-04-27T07:01:30.423Z,92.93
2019-04-27T07:02:30.611Z,93.02
2019-04-27T07:03:30.802Z,91.83
2019-04-27T07:04:31.008Z,92.50
2019-04-27T07:05:31.194Z,91.83
2019-04-27T07:06:31.401Z,90.78
2019-04-27T07:07:31.591Z,91.20
2019-04-27T07:08:31.808Z,90.34
2019-04-27T07:09:31.899Z,89.43
2019-04-27T07:10:32.089Z,89.43
2019-04-27T07:11:32.336Z,89.62
2019-04-27T07:12:32.437Z,88.04
2019-04-27T07:13:33.681Z,87.61
2019-04-27T07:14:33.627Z,84.58
2019-04-27T07:15:35.370Z,83.86
2019-04-27T07:16:35.147Z,82.48
2019-04-27T07:17:33.280Z,83.44
2019-04-27T07:18:33.380Z,83.97
2019-04-27T07:19:33.581Z,83.25
2019-04-27T07:20:33.842Z,82.00
2019-04-27T07:21:34.051Z,81.90
2019-04-27T07:22:34.228Z,81.81
2019-04-27T07:23:34.290Z,81.41
2019-04-27T07:24:34.815Z,78.47
2019-04-27T07:25:34.838Z,78.92
2019-04-27T07:26:36.381Z,79.53
2019-04-27T07:27:36.412Z,77.61
2019-04-27T07:28:35.155Z,78.00
2019-04-27T07:29:40.323Z,75.92
2019-04-27T07:30:36.087Z,75.32
2019-04-27T07:31:39.796Z,73.79
2019-04-27T07:32:36.215Z,73.11
2019-04-27T07:33:39.479Z,73.02
2019-04-27T07:34:38.689Z,72.96
2019-04-27T07:35:36.815Z,72.13
2019-04-27T07:36:36.279Z,70.82
2019-04-27T07:37:36.663Z,68.57
2019-04-27T07:38:36.679Z,70.17
2019-04-27T07:39:36.892Z,71.87
2019-04-27T07:40:39.944Z,71.71
2019-04-27T07:41:38.783Z,74.43
2019-04-27T07:42:40.868Z,75.23
2019-04-27T07:43:39.290Z,73.83
2019-04-27T07:44:39.063Z,71.84
2019-04-27T07:45:39.508Z,70.72
2019-04-27T07:46:38.626Z,69.76
2019-04-27T07:47:39.351Z,71.53
2019-04-27T07:48:39.548Z,69.73
2019-04-27T07:49:39.127Z,67.84
2019-04-27T07:50:39.142Z,67.68
2019-04-27T07:51:39.375Z,64.63
2019-04-27T07:52:40.523Z,63.85
2019-04-27T07:53:39.582Z,63.89
2019-04-27T07:54:40.976Z,61.47
2019-04-27T07:55:39.996Z,61.96
2019-04-27T07:56:40.295Z,60.41
2019-04-27T07:57:40.389Z,59.83
2019-04-27T07:58:40.307Z,61.99
2019-04-27T07:59:42.042Z,59.73
2019-04-27T08:00:40.642Z,59.89
2019-04-27T08:01:40.812Z,62.63
2019-04-27T08:02:41.058Z,63.40
2019-04-27T08:03:41.291Z,62.34
2019-04-27T08:04:41.440Z,63.24
2019-04-27T08:05:41.516Z,64.05
2019-04-27T08:06:41.703Z,65.50
2019-04-27T08:07:41.928Z,66.88
2019-04-27T08:08:42.006Z,66.88
2019-04-27T08:09:42.195Z,68.41
2019-04-27T08:10:42.494Z,67.77
2019-04-27T08:11:42.707Z,66.17
2019-04-27T08:12:42.727Z,67.65
2019-04-27T08:13:42.927Z,67.99
2019-04-27T08:14:43.137Z,68.67
2019-04-27T08:15:43.347Z,68.03
2019-04-27T08:16:43.893Z,67.80
2019-04-27T08:17:43.704Z,67.51
2019-04-27T08:18:43.897Z,68.25
2019-04-27T08:19:44.145Z,69.66
2019-04-27T08:20:44.324Z,71.55
2019-04-27T08:21:46.546Z,72.02
2019-04-27T08:22:44.731Z,71.58
2019-04-27T08:23:45.179Z,69.73
2019-04-27T08:24:45.127Z,69.15
2019-04-27T08:25:45.425Z,69.79
2019-04-27T08:26:45.435Z,70.43
2019-04-27T08:27:45.957Z,70.81
2019-04-27T08:28:45.834Z,70.62
2019-04-27T08:29:48.688Z,72.50
2019-04-27T08:30:46.041Z,74.23
2019-04-27T08:31:46.253Z,72.69
2019-04-27T08:32:46.450Z,73.08
2019-04-27T08:33:48.533Z,72.85
2019-04-27T08:34:46.862Z,71.86
2019-04-27T08:35:48.955Z,73.49
2019-04-27T08:36:49.936Z,74.22
2019-04-27T08:37:49.516Z,75.27
2019-04-27T08:38:48.903Z,75.56
2019-04-27T08:39:49.415Z,76.62
2019-04-27T08:40:49.377Z,74.48
2019-04-27T08:41:49.483Z,72.77
2019-04-27T08:42:50.870Z,71.49
2019-04-27T08:43:48.872Z,68.13
2019-04-27T08:44:49.724Z,64.79
2019-04-27T08:45:48.957Z,63.89
2019-04-27T08:46:49.512Z,64.50
2019-04-27T08:47:49.826Z,63.67
2019-04-27T08:48:49.388Z,61.12
2019-04-27T08:49:49.580Z,59.28
2019-04-27T08:50:49.763Z,59.02
2019-04-27T08:51:57.302Z,58.06
2019-04-27T08:52:51.480Z,57.21
2019-04-27T08:53:50.372Z,56.57
2019-04-27T08:54:51.062Z,56.57
2019-04-27T08:55:52.769Z,57.67
2019-04-27T08:56:50.991Z,58.19
2019-04-27T08:57:51.349Z,58.65
2019-04-27T08:58:51.415Z,59.78
2019-04-27T08:59:51.610Z,61.51
2019-04-27T09:00:51.804Z,61.54
2019-04-27T09:01:52.031Z,61.54
2019-04-27T09:02:52.341Z,60.61
2019-04-27T09:03:52.462Z,58.29
2019-04-27T09:04:52.537Z,57.78
2019-04-27T09:05:52.763Z,56.87
2019-04-27T09:06:53.025Z,55.60
2019-04-27T09:07:53.156Z,53.71
2019-04-27T09:08:53.242Z,53.37
2019-04-27T09:09:53.480Z,55.98
2019-04-27T09:10:53.553Z,56.65
2019-04-27T09:11:53.765Z,55.45
2019-04-27T09:12:53.978Z,53.96
2019-04-27T09:13:54.083Z,52.95
2019-04-27T09:14:54.278Z,52.00
2019-04-27T09:15:54.519Z,51.35
2019-04-27T09:17:00.088Z,50.24
2019-04-27T09:17:54.964Z,49.00
2019-04-27T09:18:55.233Z,49.82
2019-04-27T09:19:55.337Z,46.94
2019-04-27T09:20:55.540Z,45.68
2019-04-27T09:21:55.741Z,44.71
2019-04-27T09:22:55.999Z,44.61
2019-04-27T09:23:56.068Z,45.61
2019-04-27T09:24:56.276Z,44.65
2019-04-27T09:25:56.480Z,45.56
2019-04-27T09:26:56.681Z,47.24
2019-04-27T09:27:56.865Z,48.88
2019-04-27T09:28:57.082Z,50.48
2019-04-27T09:29:58.839Z,50.52
2019-04-27T09:30:58.621Z,52.89
2019-04-27T09:32:01.505Z,54.31
2019-04-27T09:32:57.811Z,55.63
2019-04-27T09:33:58.024Z,55.22
2019-04-27T09:34:58.384Z,55.77
2019-04-27T09:35:58.402Z,56.60
2019-04-27T09:36:58.979Z,57.83
2019-04-27T09:37:58.781Z,58.28
2019-04-27T09:38:59.077Z,59.34
2019-04-27T09:39:59.120Z,59.79
2019-04-27T09:40:59.315Z,60.75
2019-04-27T09:41:59.537Z,61.01
2019-04-27T09:42:59.736Z,61.97
2019-04-27T09:44:02.436Z,63.22
2019-04-27T09:45:00.176Z,63.28
2019-04-27T09:46:00.520Z,63.57
2019-04-27T09:47:00.594Z,63.48
2019-04-27T09:48:00.831Z,63.48
2019-04-27T09:49:01.056Z,63.38
2019-04-27T09:50:01.152Z,63.76
2019-04-27T09:51:01.356Z,64.53
2019-04-27T09:52:01.469Z,65.78
2019-04-27T09:53:01.706Z,64.50
2019-04-27T09:54:01.802Z,64.40
2019-04-27T09:55:01.993Z,64.56
2019-04-27T09:56:02.406Z,64.47
2019-04-27T09:57:02.380Z,65.14
2019-04-27T09:58:02.564Z,64.95
2019-04-27T09:59:02.900Z,64.95
2019-04-27T10:00:02.879Z,65.68
2019-04-27T10:01:03.063Z,66.26
2019-04-27T10:02:03.415Z,66.89
2019-04-27T10:03:03.918Z,67.95
2019-04-27T10:04:03.981Z,68.24
2019-04-27T10:05:05.809Z,68.72
2019-04-27T10:06:05.769Z,68.43
2019-04-27T10:07:06.065Z,69.01
2019-04-27T10:08:06.186Z,68.95
2019-04-27T10:09:04.466Z,69.13
2019-04-27T10:10:06.345Z,69.42
2019-04-27T10:11:05.945Z,69.42
2019-04-27T10:12:05.344Z,68.91
2019-04-27T10:13:06.843Z,68.72
2019-04-27T10:14:05.895Z,69.10
2019-04-27T10:15:06.170Z,69.10
2019-04-27T10:16:05.815Z,69.39
2019-04-27T10:17:06.020Z,69.68
2019-04-27T10:18:06.513Z,69.58
2019-04-27T10:19:06.346Z,69.77
2019-04-27T10:20:06.562Z,70.06
2019-04-27T10:21:06.773Z,70.83
2019-04-27T10:22:07.082Z,70.25
2019-04-27T10:23:07.225Z,70.54
2019-04-27T10:24:07.300Z,70.25
2019-04-27T10:25:07.522Z,69.96
2019-04-27T10:26:07.713Z,70.44
2019-04-27T10:27:08.149Z,70.92
2019-04-27T10:28:08.126Z,71.21
2019-04-27T10:29:08.331Z,71.21
2019-04-27T10:30:08.430Z,71.78
2019-04-27T10:31:08.666Z,71.69
2019-04-27T10:32:08.853Z,71.27
2019-04-27T10:33:09.089Z,70.70
2019-04-27T10:34:09.193Z,71.17
2019-04-27T10:35:09.281Z,71.66
2019-04-27T10:36:09.503Z,71.75
2019-04-27T10:37:09.699Z,72.52
2019-04-27T10:38:09.892Z,72.32
2019-04-27T10:39:13.014Z,72.90
2019-04-27T10:40:10.321Z,72.90
2019-04-27T10:41:10.521Z,72.42
2019-04-27T10:42:10.771Z,73.76
2019-04-27T10:43:10.836Z,73.86
2019-04-27T10:44:11.115Z,73.19
2019-04-27T10:45:11.217Z,73.09
2019-04-27T10:46:11.473Z,72.80
2019-04-27T10:47:11.521Z,72.90
2019-04-27T10:48:11.615Z,73.09
2019-04-27T10:49:11.775Z,72.42
2019-04-27T10:50:11.846Z,73.72
2019-04-27T10:51:12.038Z,73.54
2019-04-27T10:52:12.231Z,73.63
2019-04-27T10:53:12.449Z,73.54
2019-04-27T10:54:12.588Z,74.01
2019-04-27T10:55:12.794Z,74.87
2019-04-27T10:56:12.989Z,74.58
2019-04-27T10:57:13.203Z,74.58
2019-04-27T10:58:13.278Z,75.02
2019-04-27T10:59:13.537Z,75.79
2019-04-27T11:00:13.638Z,75.07
2019-04-27T11:01:15.546Z,74.74
2019-04-27T11:02:13.892Z,75.93
2019-04-27T11:03:14.108Z,74.77
2019-04-27T11:04:15.928Z,74.68
2019-04-27T11:05:14.535Z,74.58
2019-04-27T11:06:16.008Z,74.40
2019-04-27T11:07:15.832Z,73.82
2019-04-27T11:08:16.682Z,73.63
2019-04-27T11:09:16.327Z,73.72
2019-04-27T11:10:16.302Z,74.58
2019-04-27T11:11:15.782Z,74.49
2019-04-27T11:12:15.976Z,74.30
2019-04-27T11:13:16.653Z,73.91
2019-04-27T11:14:16.419Z,73.91
2019-04-27T11:15:16.504Z,74.72
2019-04-27T11:16:16.691Z,75.01
2019-04-27T11:17:16.908Z,74.43
2019-04-27T11:18:17.468Z,74.72
2019-04-27T11:19:17.271Z,75.35
2019-04-27T11:20:17.427Z,76.02
2019-04-27T11:21:17.503Z,76.40
2019-04-27T11:22:17.760Z,77.65
2019-04-27T11:23:17.839Z,78.13
2019-04-27T11:24:18.058Z,78.13
2019-04-27T11:25:18.263Z,77.94
2019-04-27T11:26:18.499Z,78.70
2019-04-27T11:27:18.587Z,80.24
2019-04-27T11:28:18.671Z,79.57
2019-04-27T11:29:18.861Z,79.47
2019-04-27T11:30:19.107Z,80.14
2019-04-27T11:31:19.178Z,80.52
2019-04-27T11:32:19.384Z,80.81
2019-04-27T11:33:19.646Z,81.96
2019-04-27T11:34:19.713Z,81.86
2019-04-27T11:35:19.973Z,82.15
2019-04-27T11:36:20.055Z,83.11
2019-04-27T11:37:20.343Z,84.26
2019-04-27T11:38:20.364Z,85.69
2019-04-27T11:39:21.275Z,85.02
2019-04-27T11:40:20.851Z,85.12
2019-04-27T11:41:20.953Z,84.26
2019-04-27T11:42:21.227Z,85.02
2019-04-27T11:43:21.282Z,85.88
2019-04-27T11:44:21.632Z,86.27
2019-04-27T11:45:21.625Z,86.74
2019-04-27T11:46:21.715Z,84.64
2019-04-27T11:47:21.972Z,84.16
2019-04-27T11:48:22.062Z,84.64
2019-04-27T11:49:22.317Z,86.27
2019-04-27T11:50:22.397Z,86.27
2019-04-27T11:51:22.489Z,86.65
2019-04-27T11:52:22.731Z,85.31
2019-04-27T11:53:23.243Z,84.92
2019-04-27T11:54:25.573Z,84.16
2019-04-27T11:55:23.139Z,84.35
2019-04-27T11:56:23.326Z,84.83
2019-04-27T11:57:23.524Z,83.72
2019-04-27T11:58:23.733Z,82.53
2019-04-27T11:59:23.937Z,82.48
2019-04-27T12:00:24.158Z,82.67
2019-04-27T12:01:24.342Z,82.00
2019-04-27T12:02:25.783Z,81.33
2019-04-27T12:03:24.796Z,80.47
2019-04-27T12:04:26.307Z,80.66
2019-04-27T12:05:26.087Z,79.51
2019-04-27T12:06:25.848Z,79.22
2019-04-27T12:07:27.795Z,80.18
2019-04-27T12:08:26.467Z,79.89
2019-04-27T12:09:25.653Z,79.99
2019-04-27T12:10:26.376Z,80.76
2019-04-27T12:11:26.188Z,81.71
2019-04-27T12:12:26.307Z,81.04
2019-04-27T12:13:26.430Z,80.24
2019-04-27T12:14:26.624Z,80.43
2019-04-27T12:15:26.822Z,81.20
2019-04-27T12:16:27.023Z,81.77
2019-04-27T12:17:29.195Z,82.40
2019-04-27T12:18:27.420Z,82.11
2019-04-27T12:19:27.639Z,83.16
2019-04-27T12:20:27.834Z,83.83
2019-04-27T12:21:28.049Z,84.98
2019-04-27T12:22:28.289Z,86.90
2019-04-27T12:23:35.576Z,85.60
2019-04-27T12:24:28.562Z,85.36
2019-04-27T12:25:28.756Z,84.35
2019-04-27T12:26:28.952Z,82.15
2019-04-27T12:27:29.178Z,81.25
2019-04-27T12:28:29.378Z,81.15
2019-04-27T12:29:30.434Z,82.20
2019-04-27T12:30:29.736Z,82.11
2019-04-27T12:31:29.966Z,82.11
2019-04-27T12:32:30.157Z,82.68
2019-04-27T12:33:30.355Z,81.73
2019-04-27T12:34:30.552Z,82.49
2019-04-27T12:35:30.761Z,81.92
2019-04-27T12:36:30.987Z,82.40
2019-04-27T12:37:31.191Z,82.68
2019-04-27T12:38:31.283Z,81.48
2019-04-27T12:39:31.507Z,81.48
2019-04-27T12:40:31.689Z,82.06
2019-04-27T12:41:31.886Z,80.81
2019-04-27T12:42:32.088Z,79.75
2019-04-27T12:43:32.485Z,80.52
2019-04-27T12:44:32.443Z,79.57
2019-04-27T12:45:32.670Z,79.75
2019-04-27T12:46:32.882Z,81.44
2019-04-27T12:47:32.998Z,82.40
2019-04-27T12:48:33.209Z,81.82
2019-04-27T12:49:33.524Z,80.58
2019-04-27T12:50:33.592Z,80.58
2019-04-27T12:51:35.529Z,80.38
2019-04-27T12:52:33.898Z,80.96
2019-04-27T12:53:47.638Z,80.87
2019-04-27T12:54:36.217Z,79.72